Time;durP1;ratioP1;P1;durP2;ratioP2;P2;SDS_P1;SDS_P2;PMS_P1;PMS_P2;Temp;Humidity;BMP_temperature;BMP_pressure;BME280_temperature;BME280_humidity;BME280_pressure;Samples;Min_cycle;Max_cycle;Signal;HPM_P1;HPM_P2
2022/08/09 00:02:19;;;;;;;3.13;2.90;;;23.80;33.30;;;;;;15292;8646;381296;-88
2022/08/09 00:04:31;;;;;;;4.33;3.50;;;23.70;33.20;;;;;;17615;7305;125361;-90
2022/08/09 00:25:20;;;;;;;3.00;2.80;;;23.30;35.40;;;;;;13639;9030;431728;-88
2022/08/09 00:36:08;;;;;;;;;;;;;;;;;;;;;
2022/08/09 00:38:19;;;;;;;2.70;2.50;;;22.70;36.60;;;;;;15430;8130;356499;-90
2022/08/09 00:56:41;;;;;;;;;;;;;;;;;;;;;
2022/08/09 01:04:54;;;;;;;;;;;;;;;;;;;;;
2022/08/09 01:07:43;;;;;;;2.80;2.60;;;22.10;36.10;;;;;;16447;8551;127912;-88
2022/08/09 01:09:55;;;;;;;2.73;2.53;;;21.70;36.50;;;;;;16986;8167;125846;-90
2022/08/09 01:26:05;;;;;;;3.53;3.23;;;21.80;37.10;;;;;;13235;9698;415157;-90
2022/08/09 01:28:41;;;;;;;3.30;3.00;;;22.00;37.10;;;;;;16914;7897;124529;-89
2022/08/09 01:46:50;;;;;;;6.47;3.40;;;21.30;38.30;;;;;;13566;9383;113834;-87
2022/08/09 01:49:36;;;;;;;5.33;4.77;;;21.20;38.00;;;;;;15554;8829;131780;-88
2022/08/09 01:52:02;;;;;;;8.83;8.03;;;20.90;38.10;;;;;;17166;7258;295595;-90
2022/08/09 01:54:51;;;;;;;7.37;6.67;;;21.10;38.40;;;;;;18698;7562;121781;-88
2022/08/09 01:57:13;;;;;;;8.07;7.27;;;21.10;38.30;;;;;;19840;6892;282010;-89
2022/08/09 01:59:49;;;;;;;7.55;6.68;;;21.30;39.20;;;;;;20069;6889;341587;-87
2022/08/09 02:02:34;;;;;;;;;;;;;;;;;;;;;
2022/08/09 02:05:03;;;;;;;8.32;7.70;;;21.80;37.90;;;;;;20361;6878;309773;-87
2022/08/09 02:07:46;;;;;;;7.40;6.70;;;22.00;37.70;;;;;;20578;6895;119388;-89
2022/08/09 02:10:11;;;;;;;6.20;5.70;;;21.60;37.70;;;;;;20565;6893;120097;-90
2022/08/09 02:12:47;;;;;;;6.13;5.00;;;21.20;38.20;;;;;;20256;6893;119020;-89
2022/08/09 02:15:32;;;;;;;;;;;;;;;;;;;;;
2022/08/09 02:17:59;;;;;;;4.43;4.03;;;20.70;38.80;;;;;;20599;6824;117495;-89
2022/08/09 02:20:35;;;;;;;3.90;3.30;;;20.50;39.00;;;;;;20591;6836;118845;-90
2022/08/09 02:23:17;;;;;;;3.10;2.90;;;20.40;39.20;;;;;;20192;6907;283428;-90
2022/08/09 02:25:52;;;;;;;3.00;2.70;;;20.70;38.90;;;;;;20462;6863;283733;-90
2022/08/09 02:28:52;;;;;;;3.28;2.83;;;21.20;38.10;;;;;;20317;6871;310610;-87
2022/08/09 02:31:04;;;;;;;2.77;2.50;;;21.40;37.50;;;;;;20404;6836;120546;-91
2022/08/09 02:33:49;;;;;;;;;;;;;;;;;;;;;
2022/08/09 02:36:28;;;;;;;3.40;3.10;;;21.30;38.10;;;;;;20433;6908;118015;-86
2022/08/09 02:38:50;;;;;;;3.30;3.10;;;21.10;38.00;;;;;;20569;6831;117547;-89
2022/08/09 03:08:19;;;;;;;3.27;3.03;;;21.00;39.10;;;;;;;;;
2022/08/09 03:10:58;;;;;;;;;;;;;;;;;;;;;
2022/08/09 03:18:56;;;;;;;2.75;2.60;;;20.80;40.80;;;;;;13659;10130;446665;-89
2022/08/09 03:21:23;;;;;;;2.70;2.50;;;21.10;40.60;;;;;;15730;7899;141402;-91
2022/08/09 03:34:22;;;;;;;2.60;2.40;;;21.40;39.40;;;;;;17489;7245;303435;-89
2022/08/09 03:45:25;;;;;;;2.70;2.50;;;21.50;38.90;;;;;;14118;9806;420007;-89
2022/08/09 03:47:23;;;;;;;2.40;2.30;;;21.50;38.80;;;;;;16650;7273;323938;-87
2022/08/09 03:52:34;;;;;;;3.40;3.20;;;21.00;39.00;;;;;;18630;7268;120236;-91
2022/08/09 04:13:22;;;;;;;3.40;3.10;;;19.90;41.40;;;;;;13445;9685;113130;-89
2022/08/09 04:15:58;;;;;;;5.43;3.80;;;19.80;41.20;;;;;;14629;9614;134230;-91
2022/08/09 04:18:43;;;;;;;;;;;;;;;;;;;;;
2022/08/09 04:24:13;;;;;;;4.40;4.00;;;20.30;40.70;;;;;;17442;7854;324164;-88
2022/08/09 04:26:20;;;;;;;4.40;4.03;;;20.60;40.00;;;;;;18136;7563;305668;-89
2022/08/09 04:29:21;;;;;;;4.20;4.00;;;20.70;39.80;;;;;;17994;7646;311993;-89
2022/08/09 04:31:32;;;;;;;4.13;3.83;;;20.80;39.80;;;;;;19063;6859;308804;-90
2022/08/09 04:34:08;;;;;;;4.20;3.85;;;20.90;39.40;;;;;;20436;6858;309921;-90
2022/08/09 04:37:44;;;;;;;;;;;;;;;;;;;;;
2022/08/09 04:41:55;;;;;;;4.07;3.80;;;20.60;40.10;;;;;;19880;6883;118725;-90
2022/08/09 04:44:31;;;;;;;3.97;3.70;;;20.40;40.40;;;;;;20479;6814;309659;-89
2022/08/09 04:49:42;;;;;;;4.20;3.90;;;20.30;40.50;;;;;;19520;6859;124582;-87
2022/08/09 04:52:17;;;;;;;4.53;3.90;;;20.00;40.80;;;;;;20549;6800;118645;-90
2022/08/09 04:55:21;;;;;;;4.37;4.07;;;19.70;41.20;;;;;;20525;6800;310664;-87
2022/08/09 04:57:32;;;;;;;4.10;3.80;;;20.00;41.60;;;;;;20353;6800;277595;-90
2022/08/09 05:18:29;;;;;;;;;;;;;;;;;;;;;
2022/08/09 05:28:52;;;;;;;;;;;;;;;;;;;;;
2022/08/09 10:40:39;;;;;;;1.80;1.70;;;33.80;23.70;;;;;;21277;6514;89115;31
2022/08/09 10:43:04;;;;;;;2.87;1.85;;;33.40;23.80;;;;;;20743;6782;276866;31
2022/08/09 10:45:30;;;;;;;1.90;1.80;;;33.30;24.20;;;;;;20680;6782;306679;31
2022/08/09 10:48:03;;;;;;;3.00;1.80;;;33.30;24.00;;;;;;20498;6857;338138;31
2022/08/09 10:53:49;;;;;;;3.20;1.80;;;33.10;24.30;;;;;;20699;6855;122384;31
2022/08/09 10:56:22;;;;;;;1.93;1.77;;;32.70;24.30;;;;;;20738;6837;117477;31
2022/08/09 10:58:46;;;;;;;6.83;1.93;;;32.30;24.50;;;;;;20734;6837;116861;31
2022/08/09 11:01:30;;;;;;;2.10;1.90;;;32.10;24.90;;;;;;20720;6852;116890;31
2022/08/09 11:04:13;;;;;;;18.47;17.27;;;32.00;24.90;;;;;;20511;6852;309419;31
2022/08/09 11:06:38;;;;;;;4.93;2.00;;;32.20;24.90;;;;;;20712;6852;117535;31
2022/08/09 11:09:04;;;;;;;2.10;1.87;;;32.20;24.70;;;;;;20724;6837;117910;31
2022/08/09 11:12:03;;;;;;;2.05;1.87;;;32.10;24.70;;;;;;20477;6837;278429;31
2022/08/09 11:14:31;;;;;;;1.97;1.77;;;32.10;24.30;;;;;;20493;6852;310914;31
2022/08/09 11:16:56;;;;;;;2.20;2.00;;;32.40;24.70;;;;;;20714;6853;117684;31
2022/08/09 11:19:43;;;;;;;2.07;1.97;;;32.30;24.40;;;;;;20529;6837;306348;31
2022/08/09 11:22:08;;;;;;;1.90;1.80;;;32.40;24.60;;;;;;20483;6852;278563;31
2022/08/09 11:25:07;;;;;;;2.30;2.10;;;32.60;24.30;;;;;;20514;6852;309335;31
2022/08/09 11:27:34;;;;;;;2.10;2.00;;;32.80;24.10;;;;;;20697;6852;117142;31
2022/08/09 11:29:58;;;;;;;2.50;2.00;;;32.70;24.50;;;;;;20507;6837;308204;31
2022/08/09 11:32:47;;;;;;;2.80;1.93;;;32.70;24.00;;;;;;20777;6836;116950;31
2022/08/09 11:35:19;;;;;;;4.50;1.90;;;32.60;24.10;;;;;;20773;6836;118626;31
2022/08/09 11:37:44;;;;;;;2.45;2.00;;;32.30;24.60;;;;;;20551;6836;311653;31
2022/08/09 11:40:10;;;;;;;2.42;2.33;;;32.30;24.70;;;;;;20760;6837;119109;31
2022/08/09 11:42:48;;;;;;;2.17;1.97;;;32.30;24.60;;;;;;20528;6838;312069;31
2022/08/09 11:45:20;;;;;;;2.53;1.80;;;32.40;25.10;;;;;;20524;6838;279717;31
2022/08/09 11:47:52;;;;;;;1.60;1.50;;;32.80;23.60;;;;;;20547;6840;308985;31
2022/08/09 11:50:17;;;;;;;1.87;1.77;;;33.00;23.50;;;;;;20736;6838;117066;31
2022/08/09 11:52:59;;;;;;;2.20;2.10;;;32.90;23.60;;;;;;20757;6840;116798;31
2022/08/09 11:55:32;;;;;;;2.37;2.00;;;32.70;24.10;;;;;;20738;6842;117447;31
2022/08/09 11:58:14;;;;;;;4.90;2.10;;;32.40;24.10;;;;;;20507;6842;338271;31
2022/08/09 12:00:53;;;;;;;2.60;1.90;;;32.50;24.10;;;;;;20505;6856;307524;31
2022/08/09 12:03:20;;;;;;;2.25;1.80;;;32.70;25.30;;;;;;20478;6856;340149;31
2022/08/09 12:05:45;;;;;;;3.47;1.83;;;33.00;22.90;;;;;;20706;6856;117249;31
2022/08/09 12:08:11;;;;;;;3.55;1.75;;;32.90;23.40;;;;;;20518;6847;308916;31
2022/08/09 12:10:36;;;;;;;4.70;1.80;;;32.90;23.20;;;;;;20731;6847;117824;31
2022/08/09 12:13:02;;;;;;;1.62;1.52;;;32.80;22.90;;;;;;20477;6847;310740;31
2022/08/09 12:15:27;;;;;;;1.83;1.60;;;32.70;23.20;;;;;;20700;6833;146388;31
2022/08/09 12:17:53;;;;;;;2.57;1.70;;;32.70;23.00;;;;;;20779;6833;120012;31
2022/08/09 12:20:18;;;;;;;1.97;1.80;;;32.50;22.90;;;;;;20779;6833;116938;31
2022/08/09 12:22:45;;;;;;;1.80;1.70;;;32.30;23.00;;;;;;20543;6833;337303;31
2022/08/09 12:25:14;;;;;;;3.92;1.70;;;32.40;22.70;;;;;;20562;6833;341051;31
2022/08/09 12:27:42;;;;;;;3.43;1.80;;;32.60;22.30;;;;;;20525;6833;307983;31
2022/08/09 12:30:08;;;;;;;3.10;1.60;;;32.80;23.00;;;;;;20564;6833;307624;31
2022/08/09 12:32:35;;;;;;;2.60;1.70;;;32.90;22.30;;;;;;20571;6833;336500;31
2022/08/09 12:35:00;;;;;;;2.10;1.60;;;33.00;22.30;;;;;;20573;6833;278840;31
2022/08/09 12:37:32;;;;;;;2.10;1.60;;;33.00;21.60;;;;;;20550;6833;308182;31
2022/08/09 12:39:58;;;;;;;2.23;1.43;;;33.10;22.60;;;;;;20779;6833;117542;31
2022/08/09 12:42:23;;;;;;;2.42;1.80;;;32.90;22.80;;;;;;20567;6833;337555;31
2022/08/09 12:44:49;;;;;;;1.83;1.73;;;32.80;22.50;;;;;;20577;6833;278160;31
2022/08/09 12:47:14;;;;;;;1.60;1.50;;;32.80;22.60;;;;;;20781;6833;116789;31
2022/08/09 12:49:40;;;;;;;1.70;1.60;;;32.70;22.60;;;;;;20762;6833;117373;31
2022/08/09 12:52:05;;;;;;;1.62;1.52;;;32.40;22.60;;;;;;20566;6833;307030;31
2022/08/09 12:54:51;;;;;;;2.23;1.80;;;32.40;22.60;;;;;;20569;6833;308200;31
2022/08/09 12:57:16;;;;;;;4.97;2.03;;;32.50;23.40;;;;;;20560;6833;331810;31
2022/08/09 12:59:42;;;;;;;1.80;1.40;;;32.60;23.30;;;;;;20480;6833;307819;31
2022/08/09 13:02:08;;;;;;;1.83;1.70;;;32.80;22.70;;;;;;20776;6832;116823;31
2022/08/09 13:04:33;;;;;;;2.33;1.70;;;32.70;22.70;;;;;;20782;6833;118687;31
2022/08/09 13:07:08;;;;;;;2.17;1.75;;;32.40;22.80;;;;;;20571;6833;308994;31
2022/08/09 13:09:35;;;;;;;1.50;1.50;;;32.40;22.80;;;;;;20714;6833;117900;31
2022/08/09 13:12:01;;;;;;;2.40;1.80;;;32.30;23.00;;;;;;20780;6833;117011;31
2022/08/09 13:14:26;;;;;;;2.30;1.83;;;32.10;23.70;;;;;;20560;6833;278702;31
2022/08/09 13:16:56;;;;;;;2.10;1.73;;;32.20;23.20;;;;;;20565;6833;278582;31
2022/08/09 13:19:25;;;;;;;2.00;1.90;;;32.40;23.00;;;;;;20743;6833;117482;31
2022/08/09 13:22:11;;;;;;;2.37;1.70;;;32.40;23.00;;;;;;20557;6833;307204;31
2022/08/09 13:24:36;;;;;;;4.83;1.90;;;32.40;23.00;;;;;;20724;6848;116995;31
2022/08/09 13:27:02;;;;;;;1.50;1.40;;;32.30;23.50;;;;;;20799;6824;117814;31
2022/08/09 13:29:28;;;;;;;1.92;1.60;;;32.00;23.70;;;;;;20535;6832;313704;31
2022/08/09 13:31:59;;;;;;;1.70;1.60;;;32.10;23.50;;;;;;20783;6833;117098;31
2022/08/09 13:34:26;;;;;;;2.00;1.60;;;32.10;23.40;;;;;;20571;6833;278966;31
2022/08/09 13:36:52;;;;;;;1.80;1.70;;;32.20;23.50;;;;;;20539;6833;308848;31
2022/08/09 13:39:17;;;;;;;1.90;1.50;;;32.40;23.80;;;;;;20563;6833;307978;31
2022/08/09 13:41:43;;;;;;;1.93;1.67;;;32.60;23.10;;;;;;20749;6833;117419;31
2022/08/09 13:44:08;;;;;;;2.60;1.60;;;32.50;23.10;;;;;;20567;6833;308055;31
2022/08/09 13:46:34;;;;;;;1.90;1.70;;;32.50;22.90;;;;;;20563;6833;278332;31
2022/08/09 13:48:59;;;;;;;2.08;1.87;;;32.60;22.80;;;;;;20786;6833;117307;31
2022/08/09 13:51:25;;;;;;;2.22;1.60;;;32.50;22.70;;;;;;20553;6833;308065;31
2022/08/09 13:53:51;;;;;;;1.80;1.70;;;32.50;22.30;;;;;;20786;6833;117464;31
2022/08/09 13:56:16;;;;;;;1.70;1.60;;;32.40;22.70;;;;;;20565;6833;307824;31
2022/08/09 13:58:42;;;;;;;2.97;1.80;;;32.30;23.00;;;;;;20565;6833;310956;31
2022/08/09 14:01:07;;;;;;;1.90;1.80;;;32.50;23.20;;;;;;20784;6833;117347;31
2022/08/09 14:03:33;;;;;;;2.93;1.73;;;32.30;23.10;;;;;;20759;6833;120883;31
2022/08/09 14:05:59;;;;;;;1.70;1.60;;;32.10;23.20;;;;;;20780;6833;117634;31
2022/08/09 14:08:24;;;;;;;1.60;1.50;;;31.90;23.00;;;;;;20557;6833;337294;31
2022/08/09 14:10:50;;;;;;;3.67;1.70;;;31.90;23.50;;;;;;20566;6833;306710;31
2022/08/09 14:13:15;;;;;;;1.80;1.60;;;32.20;23.20;;;;;;20560;6832;307643;31
2022/08/09 14:15:41;;;;;;;1.80;1.70;;;32.40;23.30;;;;;;20768;6833;117146;31
2022/08/09 14:18:07;;;;;;;1.60;1.50;;;32.30;23.10;;;;;;20566;6833;309696;31
2022/08/09 14:20:32;;;;;;;1.70;1.60;;;32.30;22.70;;;;;;20565;6833;310427;31
2022/08/09 14:22:57;;;;;;;1.75;1.52;;;32.50;22.90;;;;;;20572;6833;278314;31
2022/08/09 14:25:23;;;;;;;1.73;1.60;;;32.70;22.20;;;;;;20548;6833;308123;31
2022/08/09 14:27:48;;;;;;;1.83;1.60;;;32.70;22.20;;;;;;20572;6833;310023;31
2022/08/09 14:30:14;;;;;;;2.00;1.70;;;32.80;22.30;;;;;;20566;6833;298000;31
2022/08/09 14:32:41;;;;;;;1.50;1.40;;;32.80;21.80;;;;;;20572;6833;308507;31
2022/08/09 14:35:09;;;;;;;1.90;1.80;;;32.80;22.20;;;;;;20764;6833;119816;31
2022/08/09 14:37:35;;;;;;;1.70;1.60;;;32.60;22.30;;;;;;20554;6833;304373;31
2022/08/09 14:40:01;;;;;;;1.52;1.45;;;32.40;22.20;;;;;;20784;6833;117106;31
2022/08/09 14:42:26;;;;;;;3.30;1.80;;;32.20;22.40;;;;;;20564;6833;306901;31
2022/08/09 14:44:52;;;;;;;1.77;1.67;;;32.20;22.70;;;;;;20789;6833;117451;31
2022/08/09 14:47:18;;;;;;;1.93;1.50;;;32.10;22.50;;;;;;20563;6833;308049;31
2022/08/09 14:49:44;;;;;;;1.80;1.33;;;32.10;22.00;;;;;;20548;6833;336844;31
2022/08/09 14:52:10;;;;;;;1.53;1.43;;;32.10;21.70;;;;;;20564;6833;277879;31
2022/08/09 14:54:35;;;;;;;2.03;1.60;;;32.30;22.20;;;;;;20566;6833;277968;31
2022/08/09 14:57:02;;;;;;;2.90;1.53;;;32.40;22.10;;;;;;20766;6833;118920;31
2022/08/09 14:59:27;;;;;;;1.90;1.50;;;32.30;22.00;;;;;;20537;6833;278219;31
2022/08/09 15:01:53;;;;;;;2.67;1.30;;;32.30;21.90;;;;;;20551;6833;311953;31
2022/08/09 15:04:18;;;;;;;1.70;1.60;;;32.40;22.00;;;;;;20766;6833;119161;31
2022/08/09 15:06:44;;;;;;;3.60;1.40;;;32.20;22.10;;;;;;20569;6833;310304;31
2022/08/09 15:09:09;;;;;;;1.77;1.57;;;32.20;22.00;;;;;;20778;6833;116941;31
2022/08/09 15:11:35;;;;;;;2.17;1.60;;;32.10;22.00;;;;;;20762;6833;117834;31
2022/08/09 15:14:01;;;;;;;2.42;1.50;;;31.80;22.20;;;;;;20557;6833;311778;31
2022/08/09 15:16:28;;;;;;;1.50;1.40;;;31.80;22.30;;;;;;20768;6833;118938;31
2022/08/09 15:18:53;;;;;;;2.73;1.60;;;31.70;22.40;;;;;;20559;6833;281857;31
2022/08/09 15:21:19;;;;;;;5.00;1.83;;;31.80;22.80;;;;;;20778;6833;117314;31
2022/08/09 15:23:44;;;;;;;1.90;1.80;;;31.80;22.70;;;;;;20741;6833;124939;31
2022/08/09 15:26:10;;;;;;;5.10;1.50;;;31.60;22.60;;;;;;20767;6832;117299;31
2022/08/09 15:28:35;;;;;;;1.80;1.70;;;31.50;22.60;;;;;;20782;6833;117561;31
2022/08/09 15:31:01;;;;;;;1.60;1.50;;;31.30;22.70;;;;;;20776;6833;117291;31
2022/08/09 15:33:28;;;;;;;1.33;1.30;;;31.20;22.90;;;;;;20762;6833;117047;31
2022/08/09 15:35:53;;;;;;;2.55;1.87;;;31.10;23.00;;;;;;20566;6833;278612;31
2022/08/09 15:38:19;;;;;;;1.57;1.50;;;31.30;23.10;;;;;;20570;6833;309808;31
2022/08/09 15:40:44;;;;;;;1.40;1.40;;;31.60;22.90;;;;;;20779;6833;117123;31
2022/08/09 15:43:10;;;;;;;5.40;1.60;;;31.70;22.90;;;;;;20789;6833;117831;31
2022/08/09 15:45:35;;;;;;;1.63;1.53;;;31.60;23.00;;;;;;20767;6833;141465;31
2022/08/09 15:48:01;;;;;;;1.70;1.60;;;31.40;23.00;;;;;;20571;6833;308112;31
2022/08/09 15:50:26;;;;;;;3.53;1.60;;;31.50;22.70;;;;;;20566;6833;311053;31
2022/08/09 15:52:53;;;;;;;2.83;1.40;;;31.80;22.60;;;;;;20769;6833;116951;31
2022/08/09 15:55:19;;;;;;;4.07;1.40;;;31.70;22.60;;;;;;20770;6833;117572;31
2022/08/09 15:57:44;;;;;;;3.50;1.50;;;31.50;22.80;;;;;;20754;6833;119625;31
2022/08/09 16:00:14;;;;;;;2.37;1.57;;;31.30;22.90;;;;;;20560;6833;278506;31
2022/08/09 16:02:38;;;;;;;1.80;1.70;;;31.40;22.70;;;;;;20421;6833;307774;31
2022/08/09 16:05:07;;;;;;;1.40;1.40;;;31.70;22.60;;;;;;20771;6833;117293;31
2022/08/09 16:07:29;;;;;;;1.27;1.27;;;31.60;22.60;;;;;;21014;6626;144104;-91
2022/08/09 16:10:07;;;;;;;3.75;1.55;;;31.40;22.60;;;;;;20530;6734;340874;-90
2022/08/09 16:12:41;;;;;;;1.33;1.23;;;31.50;22.30;;;;;;19795;6751;67603;-91
2022/08/09 16:15:17;;;;;;;1.63;1.50;;;31.40;22.40;;;;;;20622;6747;66293;-91
2022/08/09 16:17:54;;;;;;;1.83;1.40;;;31.20;22.80;;;;;;20686;6631;282914;-91
2022/08/09 16:20:29;;;;;;;1.70;1.60;;;31.30;22.80;;;;;;20753;6762;276594;-88
2022/08/09 16:23:06;;;;;;;2.00;1.50;;;31.60;22.60;;;;;;20923;6746;67248;-91
2022/08/09 16:25:42;;;;;;;1.40;1.40;;;31.20;23.20;;;;;;20862;6735;117111;-93
2022/08/09 16:28:19;;;;;;;2.97;1.13;;;31.20;22.80;;;;;;20844;6765;117104;-90
2022/08/09 16:30:54;;;;;;;1.50;1.30;;;30.90;22.80;;;;;;20939;6752;118336;-90
2022/08/09 16:33:31;;;;;;;1.50;1.50;;;30.70;22.80;;;;;;20827;6736;117135;-91
2022/08/09 16:36:07;;;;;;;1.70;1.60;;;30.50;23.00;;;;;;20768;6759;117476;-88
2022/08/09 16:38:43;;;;;;;2.50;1.40;;;30.40;23.20;;;;;;20904;6745;117245;-88
2022/08/09 16:41:18;;;;;;;2.07;1.90;;;30.30;23.20;;;;;;20967;6739;116842;-89
2022/08/09 16:43:54;;;;;;;2.17;1.30;;;30.30;23.20;;;;;;20756;6729;276887;-89
2022/08/09 16:46:31;;;;;;;1.50;1.40;;;30.50;23.10;;;;;;20604;6747;279166;-87
2022/08/09 16:49:07;;;;;;;1.60;1.42;;;31.00;22.30;;;;;;20656;6762;337473;-88
2022/08/09 16:51:42;;;;;;;1.40;1.30;;;31.50;22.50;;;;;;20549;6765;307233;-86
2022/08/09 16:54:18;;;;;;;1.50;1.40;;;31.50;22.50;;;;;;20826;6823;117692;-86
2022/08/09 16:56:54;;;;;;;1.70;1.60;;;31.30;22.30;;;;;;20719;6760;117846;-86
2022/08/09 16:59:29;;;;;;;1.53;1.30;;;31.10;22.40;;;;;;20890;6751;117392;-87
2022/08/09 17:02:05;;;;;;;2.40;1.40;;;30.80;22.60;;;;;;20662;6752;277173;-87
2022/08/09 17:04:50;;;;;;;2.70;1.70;;;31.00;23.10;;;;;;20670;6750;304461;-88
2022/08/09 17:07:16;;;;;;;3.33;1.40;;;31.20;23.20;;;;;;20490;6767;282485;-88
2022/08/09 17:09:53;;;;;;;1.70;1.60;;;31.50;22.90;;;;;;20865;6751;116993;-87
2022/08/09 17:12:30;;;;;;;1.50;1.40;;;31.30;22.90;;;;;;20930;6751;120046;-89
2022/08/09 17:15:06;;;;;;;1.90;1.50;;;31.10;23.30;;;;;;20620;6760;307726;-86
2022/08/09 17:17:42;;;;;;;1.98;1.42;;;31.00;23.30;;;;;;20684;6734;335471;-89
2022/08/09 17:20:18;;;;;;;3.10;1.80;;;31.40;23.00;;;;;;20681;6747;278387;-89
2022/08/09 17:22:57;;;;;;;1.53;1.43;;;31.40;23.00;;;;;;20901;6747;116968;-87
2022/08/09 17:25:31;;;;;;;2.30;1.77;;;30.80;23.60;;;;;;20802;6760;117980;-86
2022/08/09 17:28:07;;;;;;;1.93;1.83;;;30.70;23.60;;;;;;20881;6751;117495;-88
2022/08/09 17:30:42;;;;;;;1.90;1.53;;;30.40;23.80;;;;;;20673;6747;276426;-87
2022/08/09 17:33:18;;;;;;;1.67;1.57;;;30.50;24.20;;;;;;20677;6761;307321;-87
2022/08/09 17:35:56;;;;;;;1.63;1.53;;;30.70;23.80;;;;;;20650;6785;309046;-85
2022/08/09 17:38:29;;;;;;;1.77;1.67;;;30.90;23.50;;;;;;20740;6744;297904;-85
2022/08/09 17:41:07;;;;;;;5.83;1.80;;;31.00;23.60;;;;;;20951;6744;117059;-86
2022/08/09 17:43:43;;;;;;;2.80;2.60;;;30.70;23.60;;;;;;20616;6759;335198;-85
2022/08/09 17:46:18;;;;;;;2.37;1.70;;;30.70;24.50;;;;;;20600;6744;278797;-86
2022/08/09 17:48:54;;;;;;;4.30;1.77;;;30.80;24.40;;;;;;20739;6729;277598;-86
2022/08/09 17:51:30;;;;;;;2.00;1.63;;;31.00;24.20;;;;;;20894;6743;117759;-86
2022/08/09 17:54:05;;;;;;;1.50;1.40;;;30.70;24.20;;;;;;20866;6759;116261;-85
2022/08/09 17:56:41;;;;;;;3.33;1.47;;;30.30;24.40;;;;;;20754;6759;118286;-84
2022/08/09 17:59:19;;;;;;;1.67;1.57;;;29.90;24.60;;;;;;20497;6787;302179;-85
2022/08/09 18:01:55;;;;;;;2.00;1.50;;;30.00;24.90;;;;;;20844;6770;71171;-85
2022/08/09 18:04:30;;;;;;;2.67;2.07;;;29.90;24.90;;;;;;20597;6770;306085;-85
2022/08/09 18:07:07;;;;;;;2.73;1.80;;;30.00;25.10;;;;;;20567;6740;306938;-85
2022/08/09 18:09:43;;;;;;;2.27;1.70;;;30.10;25.00;;;;;;20900;6741;118067;-85
2022/08/09 18:12:18;;;;;;;1.97;1.87;;;29.90;25.10;;;;;;20920;6740;120215;-85
2022/08/09 18:14:55;;;;;;;2.77;1.60;;;29.60;25.30;;;;;;20872;6753;120842;-84
2022/08/09 18:17:39;;;;;;;2.60;1.87;;;29.30;25.50;;;;;;20717;6792;119298;-85
2022/08/09 18:20:06;;;;;;;1.70;1.60;;;28.80;25.80;;;;;;20919;6740;117633;-86
2022/08/09 18:22:41;;;;;;;1.90;1.80;;;28.80;25.80;;;;;;20947;6734;116407;-85
2022/08/09 18:25:17;;;;;;;4.00;1.50;;;28.60;26.00;;;;;;20905;6736;117057;-83
2022/08/09 18:28:02;;;;;;;2.10;1.80;;;28.50;26.30;;;;;;20670;6748;278334;-85
2022/08/09 18:30:28;;;;;;;2.40;1.77;;;28.70;26.60;;;;;;20680;6749;306958;-86
2022/08/09 18:33:04;;;;;;;1.70;1.60;;;29.10;26.40;;;;;;20941;6734;117639;-85
2022/08/09 18:35:39;;;;;;;2.07;1.60;;;29.00;26.30;;;;;;20694;6734;308177;-84
2022/08/09 18:38:15;;;;;;;1.90;1.80;;;29.10;26.40;;;;;;20729;6734;275639;-84
2022/08/09 18:40:53;;;;;;;5.03;1.60;;;29.40;26.20;;;;;;20776;6719;293201;-85
2022/08/09 18:43:27;;;;;;;1.70;1.60;;;29.30;26.20;;;;;;20866;6749;117587;-84
2022/08/09 18:46:02;;;;;;;1.87;1.77;;;29.10;26.20;;;;;;20915;6724;117295;-88
2022/08/09 18:48:38;;;;;;;1.87;1.87;;;28.70;27.00;;;;;;20905;6795;117027;-85
2022/08/09 18:51:13;;;;;;;2.17;2.00;;;28.40;26.70;;;;;;20746;6749;305253;-84
2022/08/09 18:53:50;;;;;;;2.73;1.90;;;28.50;27.00;;;;;;20963;6741;119059;-83
2022/08/09 18:56:25;;;;;;;3.53;1.80;;;28.40;26.90;;;;;;20817;6719;303762;-90
2022/08/09 18:59:00;;;;;;;2.13;2.00;;;28.50;27.00;;;;;;20687;6790;298876;-91
2022/08/09 19:01:37;;;;;;;1.83;1.73;;;28.70;26.80;;;;;;20988;6733;125622;-84
2022/08/09 19:04:13;;;;;;;2.35;2.00;;;28.60;26.90;;;;;;20708;6719;304890;-90
2022/08/09 19:06:52;;;;;;;2.87;1.63;;;28.50;26.80;;;;;;20954;6719;116835;-90
2022/08/09 19:09:28;;;;;;;2.70;1.80;;;28.40;27.00;;;;;;20814;6721;276309;-84
2022/08/09 19:12:06;;;;;;;2.97;2.00;;;28.40;27.10;;;;;;20957;6726;116659;-83
2022/08/09 19:14:40;;;;;;;3.30;1.83;;;28.30;27.10;;;;;;20704;6745;280938;-85
2022/08/09 19:17:17;;;;;;;2.10;1.75;;;28.50;27.30;;;;;;20555;6734;308309;-88
2022/08/09 19:19:53;;;;;;;1.80;1.70;;;28.50;27.00;;;;;;20723;6734;306199;-85
2022/08/09 19:22:29;;;;;;;2.00;1.90;;;28.60;26.90;;;;;;20939;6734;117100;-85
2022/08/09 19:25:05;;;;;;;4.70;2.00;;;28.40;27.00;;;;;;20712;6736;331836;-84
2022/08/09 19:27:40;;;;;;;3.77;1.80;;;28.30;27.10;;;;;;20654;6750;276416;-85
2022/08/09 19:30:16;;;;;;;2.17;1.90;;;28.40;27.30;;;;;;20668;6750;331004;-85
2022/08/09 19:32:54;;;;;;;2.33;1.57;;;28.40;27.00;;;;;;20936;6734;117041;-85
2022/08/09 19:35:29;;;;;;;3.37;1.90;;;28.10;27.30;;;;;;20619;6749;310097;-84
2022/08/09 19:38:05;;;;;;;2.63;1.93;;;28.10;27.30;;;;;;20776;6719;278722;-86
2022/08/09 19:40:42;;;;;;;2.05;1.95;;;28.40;27.50;;;;;;20673;6749;306474;-90
2022/08/09 19:43:27;;;;;;;5.03;2.00;;;28.30;27.40;;;;;;20870;6749;118022;-84
2022/08/09 19:45:55;;;;;;;2.30;1.80;;;28.00;27.60;;;;;;20615;6749;283702;-86
2022/08/09 19:48:31;;;;;;;3.07;2.10;;;27.90;27.90;;;;;;20987;6734;116950;-85
2022/08/09 19:51:07;;;;;;;1.87;1.77;;;27.70;28.00;;;;;;20940;6734;117175;-86
2022/08/09 19:53:43;;;;;;;2.63;2.00;;;27.20;28.10;;;;;;20693;6750;283309;-84
2022/08/09 19:56:19;;;;;;;5.57;2.13;;;27.30;28.40;;;;;;20641;6734;295953;-84
2022/08/09 19:58:55;;;;;;;2.47;1.80;;;27.50;28.20;;;;;;20725;6734;277255;-84
2022/08/09 20:01:31;;;;;;;2.60;2.10;;;27.70;28.10;;;;;;20904;6736;116855;-85
2022/08/09 20:04:08;;;;;;;2.27;1.73;;;27.40;28.10;;;;;;20673;6751;293483;-84
2022/08/09 20:06:43;;;;;;;2.20;2.00;;;27.40;28.30;;;;;;20768;6749;118464;-84
2022/08/09 20:09:19;;;;;;;1.97;1.80;;;27.20;28.40;;;;;;20997;6732;116077;-84
2022/08/09 20:11:55;;;;;;;2.27;1.63;;;26.80;28.60;;;;;;20970;6736;117136;-84
2022/08/09 20:14:33;;;;;;;2.60;2.07;;;26.70;29.10;;;;;;20795;6711;306132;-87
2022/08/09 20:17:09;;;;;;;2.60;2.40;;;26.60;29.00;;;;;;20829;6716;117690;-85
2022/08/09 20:19:45;;;;;;;2.65;2.08;;;26.60;29.00;;;;;;20686;6778;332278;-83
2022/08/09 20:22:23;;;;;;;3.40;2.30;;;26.70;29.10;;;;;;20809;6707;276487;-83
2022/08/09 20:24:59;;;;;;;2.23;2.00;;;27.00;29.10;;;;;;20817;6702;307620;-83
2022/08/09 20:27:34;;;;;;;2.20;2.10;;;27.10;28.80;;;;;;20509;6788;309006;-84
2022/08/09 20:30:12;;;;;;;3.27;1.90;;;27.20;28.80;;;;;;20729;6731;298356;-84
2022/08/09 20:32:47;;;;;;;4.60;2.13;;;27.30;28.70;;;;;;20939;6731;117072;-84
2022/08/09 20:35:23;;;;;;;2.27;2.07;;;26.90;28.80;;;;;;20691;6731;305018;-83
2022/08/09 20:37:58;;;;;;;3.43;1.90;;;26.80;29.10;;;;;;20967;6719;120117;-84
2022/08/09 20:40:44;;;;;;;2.10;2.00;;;26.60;29.10;;;;;;20689;6746;306231;-83
2022/08/09 20:43:09;;;;;;;2.62;2.10;;;26.60;28.80;;;;;;20679;6746;278815;-83
2022/08/09 20:45:46;;;;;;;1.60;1.60;;;26.80;28.70;;;;;;20836;6744;118812;-84
2022/08/09 20:48:22;;;;;;;1.80;1.70;;;26.60;28.80;;;;;;20729;6731;306528;-83
2022/08/09 20:50:57;;;;;;;1.73;1.62;;;26.60;29.00;;;;;;20725;6731;298564;-83
2022/08/09 20:53:34;;;;;;;1.87;1.77;;;26.80;28.90;;;;;;20721;6736;279382;-83
2022/08/09 20:56:19;;;;;;;2.10;1.90;;;26.80;28.90;;;;;;20668;6717;307418;-83
2022/08/09 20:58:47;;;;;;;2.57;1.90;;;26.80;29.10;;;;;;20961;6717;118062;-82
2022/08/09 21:01:31;;;;;;;3.13;2.00;;;26.00;29.40;;;;;;20997;6717;118982;-83
2022/08/09 21:03:57;;;;;;;4.93;2.10;;;26.00;29.40;;;;;;20925;6732;117602;-83
2022/08/09 21:06:35;;;;;;;2.20;2.00;;;25.80;29.80;;;;;;20596;6734;307789;-82
2022/08/09 21:09:12;;;;;;;2.37;2.13;;;25.80;30.10;;;;;;20932;6734;116765;-83
2022/08/09 21:11:47;;;;;;;2.77;2.00;;;25.80;30.10;;;;;;20875;6748;119097;-83
2022/08/09 21:14:23;;;;;;;3.83;2.20;;;25.50;30.50;;;;;;20984;6717;116911;-83
2022/08/09 21:17:00;;;;;;;2.47;1.90;;;25.30;30.90;;;;;;20871;6717;117245;-82
2022/08/09 21:19:35;;;;;;;3.37;2.00;;;25.00;31.80;;;;;;20961;6720;117418;-82
2022/08/09 21:22:11;;;;;;;2.33;2.10;;;24.90;31.00;;;;;;20882;6750;117175;-85
2022/08/09 21:27:42;;;;;;;2.90;2.13;;;24.80;31.10;;;;;;20838;6762;117633;-84
2022/08/09 21:30:18;;;;;;;2.30;1.90;;;24.70;31.10;;;;;;20672;6750;309001;-84
2022/08/09 21:32:54;;;;;;;2.17;2.07;;;25.10;31.60;;;;;;20910;6737;117158;-84
2022/08/09 21:35:32;;;;;;;2.90;1.93;;;25.20;31.30;;;;;;20621;6752;311873;-84
2022/08/09 21:38:06;;;;;;;1.97;1.87;;;25.40;31.10;;;;;;20951;6726;117045;-84
2022/08/09 21:40:42;;;;;;;2.47;2.30;;;25.40;30.90;;;;;;20920;6739;117222;-84